createdAt,value
2022-12-20T00:01:01.011Z,-3.82
2022-12-20T00:03:27.510Z,-3.87
2022-12-20T00:05:54.864Z,-3.84
2022-12-20T00:08:21.362Z,-3.82
2022-12-20T00:10:47.928Z,-3.81
2022-12-20T00:13:14.576Z,-3.74
2022-12-20T00:15:41.154Z,-3.74
2022-12-20T00:18:07.726Z,-3.74
2022-12-20T00:20:34.403Z,-3.65
2022-12-20T00:23:01.696Z,-3.69
2022-12-20T00:25:28.866Z,-3.74
2022-12-20T00:27:55.521Z,-3.73
2022-12-20T00:30:22.030Z,-3.72
2022-12-20T00:32:48.504Z,-3.73
2022-12-20T00:35:15.035Z,-3.70
2022-12-20T00:37:41.791Z,-3.69
2022-12-20T00:40:08.861Z,-3.61
2022-12-20T00:42:35.399Z,-3.58
2022-12-20T00:45:02.078Z,-3.56
2022-12-20T00:47:28.620Z,-3.57
2022-12-20T00:49:55.126Z,-3.60
2022-12-20T00:52:22.300Z,-3.67
2022-12-20T00:54:48.788Z,-3.67
2022-12-20T00:57:15.317Z,-3.68
2022-12-20T00:59:41.851Z,-3.72
2022-12-20T01:02:08.538Z,-3.76
2022-12-20T01:04:35.239Z,-3.82
2022-12-20T01:07:02.619Z,-3.88
2022-12-20T01:09:29.142Z,-3.92
2022-12-20T01:11:55.701Z,-3.88
2022-12-20T01:14:22.195Z,-3.90
2022-12-20T01:16:48.924Z,-3.89
2022-12-20T01:19:17.668Z,-3.79
2022-12-20T01:21:44.880Z,-3.71
2022-12-20T01:24:13.338Z,-3.68
2022-12-20T01:26:40.058Z,-3.60
2022-12-20T01:29:06.666Z,-3.57
2022-12-20T01:31:33.277Z,-3.56
2022-12-20T01:34:00.107Z,-3.61
2022-12-20T01:36:29.827Z,-3.58
2022-12-20T01:39:02.877Z,-3.62
2022-12-20T01:41:30.911Z,-3.64
2022-12-20T01:44:01.124Z,-3.68
2022-12-20T01:46:30.082Z,-3.71
2022-12-20T01:49:02.969Z,-3.67
2022-12-20T01:51:32.104Z,-3.72
2022-12-20T01:54:04.739Z,-3.72
2022-12-20T01:56:31.617Z,-3.67
2022-12-20T01:58:58.982Z,-3.71
2022-12-20T02:01:25.976Z,-3.70
2022-12-20T02:03:55.305Z,-3.70
2022-12-20T02:06:24.707Z,-3.76
2022-12-20T02:08:54.837Z,-3.76
2022-12-20T02:11:26.967Z,-3.79
2022-12-20T02:14:06.332Z,-3.83
2022-12-20T02:16:42.664Z,-3.83
2022-12-20T02:19:46.437Z,-3.94
2022-12-20T02:22:37.796Z,-4.03
2022-12-20T02:25:14.852Z,-4.09
2022-12-20T02:27:55.201Z,-4.13
2022-12-20T02:30:24.027Z,-4.15
2022-12-20T02:32:59.405Z,-4.16
2022-12-20T02:35:32.070Z,-4.16
2022-12-20T02:38:05.019Z,-4.12
2022-12-20T02:40:40.172Z,-4.16
2022-12-20T02:43:28.935Z,-4.19
2022-12-20T02:45:58.707Z,-4.20
2022-12-20T02:48:28.979Z,-4.16
2022-12-20T02:50:59.095Z,-4.09
2022-12-20T02:53:26.447Z,-4.02
2022-12-20T02:56:01.641Z,-3.97
2022-12-20T02:58:34.749Z,-3.93
2022-12-20T03:01:08.855Z,-3.91
2022-12-20T03:03:36.711Z,-3.92
2022-12-20T03:06:03.713Z,-3.92
2022-12-20T03:08:30.524Z,-3.85
2022-12-20T03:10:57.117Z,-3.84
2022-12-20T03:13:24.968Z,-3.77
2022-12-20T03:15:51.878Z,-3.76
2022-12-20T03:18:18.787Z,-3.81
2022-12-20T03:20:45.312Z,-3.78
2022-12-20T03:23:11.857Z,-3.75
2022-12-20T03:25:38.431Z,-3.75
2022-12-20T03:28:04.956Z,-3.72
2022-12-20T03:30:31.567Z,-3.78
2022-12-20T03:32:58.222Z,-3.78
2022-12-20T03:35:24.760Z,-3.86
2022-12-20T03:37:51.262Z,-3.90
2022-12-20T03:40:17.880Z,-3.86
2022-12-20T03:42:44.407Z,-3.86
2022-12-20T03:45:11.228Z,-3.91
2022-12-20T03:47:37.947Z,-3.88
2022-12-20T03:50:06.887Z,-3.95
2022-12-20T03:52:33.969Z,-3.91
2022-12-20T03:55:00.848Z,-3.94
2022-12-20T03:57:27.417Z,-3.93
2022-12-20T03:59:54.480Z,-3.95
2022-12-20T04:02:22.752Z,-3.92
2022-12-20T04:04:49.752Z,-3.95
2022-12-20T04:07:16.669Z,-4.02
2022-12-20T04:09:43.215Z,-4.12
2022-12-20T04:12:09.773Z,-4.19
2022-12-20T04:14:37.421Z,-4.19
2022-12-20T04:17:04.526Z,-4.18
2022-12-20T04:19:31.276Z,-4.27
2022-12-20T04:22:04.739Z,-4.25
2022-12-20T04:24:31.865Z,-4.19
2022-12-20T04:26:58.354Z,-4.11
2022-12-20T04:29:24.932Z,-4.06
2022-12-20T04:31:51.504Z,-4.05
2022-12-20T04:34:18.076Z,-4.03
2022-12-20T04:36:44.730Z,-3.95
2022-12-20T04:39:11.294Z,-3.96
2022-12-20T04:41:37.877Z,-3.94
2022-12-20T04:44:04.544Z,-3.95
2022-12-20T04:46:31.109Z,-3.92
2022-12-20T04:48:59.309Z,-3.89
2022-12-20T04:51:28.023Z,-3.89
2022-12-20T04:53:55.705Z,-3.87
2022-12-20T04:56:31.160Z,-3.88
2022-12-20T04:58:58.961Z,-3.87
2022-12-20T05:01:26.357Z,-3.91
2022-12-20T05:03:53.426Z,-3.90
2022-12-20T05:06:20.074Z,-3.86
2022-12-20T05:08:46.863Z,-3.80
2022-12-20T05:11:13.441Z,-3.81
2022-12-20T05:13:40.156Z,-3.83
2022-12-20T05:16:07.266Z,-3.80
2022-12-20T05:18:33.985Z,-3.72
2022-12-20T05:21:20.436Z,-3.63
2022-12-20T05:24:05.790Z,-3.56
2022-12-20T05:26:36.625Z,-3.63
2022-12-20T05:29:03.986Z,-3.60
2022-12-20T05:31:31.175Z,-3.51
2022-12-20T05:33:57.746Z,-3.57
2022-12-20T05:36:24.268Z,-3.59
2022-12-20T05:38:50.871Z,-3.56
2022-12-20T05:41:17.423Z,-3.57
2022-12-20T05:43:43.886Z,-3.61
2022-12-20T05:46:10.824Z,-3.63
2022-12-20T05:48:37.603Z,-3.62
2022-12-20T05:51:04.615Z,-3.65
2022-12-20T05:53:31.259Z,-3.67
2022-12-20T05:55:59.421Z,-3.63
2022-12-20T05:58:25.932Z,-3.61
2022-12-20T06:00:52.514Z,-3.58
2022-12-20T06:03:19.332Z,-3.54
2022-12-20T06:05:46.735Z,-3.50
2022-12-20T06:08:14.010Z,-3.53
2022-12-20T06:10:41.968Z,-3.47
2022-12-20T06:13:09.642Z,-3.49
2022-12-20T06:15:36.452Z,-3.55
2022-12-20T06:18:03.685Z,-3.59
2022-12-20T06:20:30.206Z,-3.62
2022-12-20T06:22:56.727Z,-3.68
2022-12-20T06:25:23.242Z,-3.69
2022-12-20T06:27:49.789Z,-3.80
2022-12-20T06:30:16.804Z,-3.88
2022-12-20T06:32:43.552Z,-3.93
2022-12-20T06:35:10.100Z,-4.06
2022-12-20T06:37:36.905Z,-4.12
2022-12-20T06:40:05.398Z,-4.12
2022-12-20T06:42:31.986Z,-4.19
2022-12-20T06:44:58.539Z,-4.22
2022-12-20T06:47:25.113Z,-4.26
2022-12-20T06:49:54.768Z,-4.25
2022-12-20T06:52:21.346Z,-2.42
2022-12-20T06:54:53.421Z,-2.23
2022-12-20T06:57:24.215Z,-2.82
2022-12-20T06:59:50.719Z,-3.18
2022-12-20T07:02:19.935Z,-3.32
2022-12-20T07:04:48.840Z,-3.39
2022-12-20T07:07:21.426Z,-3.49
2022-12-20T07:09:53.587Z,-3.49
2022-12-20T07:12:26.058Z,-3.51
2022-12-20T07:14:58.952Z,-3.51
2022-12-20T07:17:30.050Z,-3.44
2022-12-20T07:19:56.620Z,-3.35
2022-12-20T07:22:23.102Z,-3.29
2022-12-20T07:24:52.102Z,-3.16
2022-12-20T07:27:19.025Z,-3.08
2022-12-20T07:29:45.533Z,-2.97
2022-12-20T07:32:13.527Z,-2.83
2022-12-20T07:34:40.603Z,-2.66
2022-12-20T07:37:08.598Z,-2.59
2022-12-20T07:39:35.186Z,-2.51
2022-12-20T07:42:02.159Z,-2.43
2022-12-20T07:44:29.103Z,-2.31
2022-12-20T07:46:55.649Z,-2.22
2022-12-20T07:49:22.244Z,-2.12
2022-12-20T07:51:53.619Z,-1.87
2022-12-20T07:54:26.187Z,-1.73
2022-12-20T07:56:58.707Z,-1.58
2022-12-20T07:59:29.249Z,-1.51
2022-12-20T08:02:00.871Z,-1.35
2022-12-20T08:04:31.169Z,-1.23
2022-12-20T08:07:01.283Z,-1.17
2022-12-20T08:09:34.697Z,-1.03
2022-12-20T08:12:01.319Z,-0.93
2022-12-20T08:14:27.900Z,-0.91
2022-12-20T08:16:54.469Z,-0.93
2022-12-20T08:19:23.304Z,-0.82
2022-12-20T08:21:52.033Z,-0.76
2022-12-20T08:24:18.726Z,-0.74
2022-12-20T08:26:45.263Z,-0.74
2022-12-20T08:29:11.797Z,-0.58
2022-12-20T08:31:44.424Z,-0.65
2022-12-20T08:34:14.290Z,-0.52
2022-12-20T08:36:41.063Z,-0.56
2022-12-20T08:39:08.049Z,-0.48
2022-12-20T08:41:36.765Z,-0.52
2022-12-20T08:44:04.823Z,-0.56
2022-12-20T08:46:31.351Z,-0.36
2022-12-20T08:48:57.921Z,-0.18
2022-12-20T08:51:24.668Z,-0.08
2022-12-20T08:53:53.200Z,0.03
2022-12-20T08:56:20.180Z,0.07
2022-12-20T08:58:47.142Z,-0.07
2022-12-20T09:01:16.228Z,-0.08
2022-12-20T09:03:43.673Z,-0.12
2022-12-20T09:06:20.192Z,-0.20
2022-12-20T09:08:47.721Z,-0.25
2022-12-20T09:11:15.899Z,-0.12
2022-12-20T09:13:44.848Z,-0.01
2022-12-20T09:16:13.919Z,0.28
2022-12-20T09:18:41.260Z,0.42
2022-12-20T09:21:09.386Z,0.78
2022-12-20T09:23:37.083Z,1.06
2022-12-20T09:26:11.128Z,0.91
2022-12-20T09:28:37.685Z,1.06
2022-12-20T09:31:06.601Z,1.27
2022-12-20T09:33:34.921Z,1.36
2022-12-20T09:36:02.394Z,1.47
2022-12-20T09:38:31.176Z,1.41
2022-12-20T09:41:06.705Z,1.29
2022-12-20T09:43:34.090Z,1.59
2022-12-20T09:46:03.969Z,1.94
2022-12-20T09:48:35.403Z,2.09
2022-12-20T09:51:28.249Z,2.30
2022-12-20T09:54:36.002Z,2.37
2022-12-20T09:57:13.087Z,2.36
2022-12-20T09:59:47.539Z,2.52
2022-12-20T10:02:58.296Z,1.95
2022-12-20T10:05:57.760Z,1.55
2022-12-20T10:08:42.458Z,1.40
2022-12-20T10:11:39.582Z,2.14
2022-12-20T10:14:27.213Z,2.38
2022-12-20T10:17:09.092Z,2.32
2022-12-20T10:19:56.475Z,2.56
2022-12-20T10:22:29.107Z,2.37
2022-12-20T10:25:22.928Z,2.37
2022-12-20T10:27:53.529Z,1.91
2022-12-20T10:30:22.914Z,1.68
2022-12-20T10:32:52.699Z,1.57
2022-12-20T10:35:40.492Z,1.41
2022-12-20T10:38:12.518Z,1.76
2022-12-20T10:41:20.225Z,2.07
2022-12-20T10:43:43.193Z,1.64
2022-12-20T10:46:11.554Z,1.43
2022-12-20T10:48:41.185Z,1.39
2022-12-20T10:51:15.334Z,1.39
2022-12-20T10:53:51.387Z,1.59
2022-12-20T10:56:22.012Z,1.79
2022-12-20T10:59:22.936Z,2.06
2022-12-20T11:01:50.603Z,2.17
2022-12-20T11:04:30.196Z,2.07
2022-12-20T11:06:58.033Z,2.11
2022-12-20T11:09:36.268Z,2.05
2022-12-20T11:12:13.612Z,1.94
2022-12-20T11:14:42.625Z,1.57
2022-12-20T11:17:22.653Z,1.49
2022-12-20T11:20:08.863Z,1.69
2022-12-20T11:22:54.319Z,1.98
2022-12-20T11:25:30.877Z,2.25
2022-12-20T11:28:19.332Z,2.54
2022-12-20T11:31:00.780Z,2.99
2022-12-20T11:33:27.272Z,3.21
2022-12-20T11:36:15.466Z,3.15
2022-12-20T11:38:46.284Z,3.29
2022-12-20T11:41:27.817Z,3.10
2022-12-20T11:44:33.078Z,2.81
2022-12-20T11:47:21.249Z,2.92
2022-12-20T11:50:09.724Z,3.06
2022-12-20T11:52:42.293Z,3.26
2022-12-20T11:55:29.822Z,3.85
2022-12-20T11:58:21.512Z,3.63
2022-12-20T12:00:54.885Z,3.53
2022-12-20T12:03:32.917Z,3.14
2022-12-20T12:06:16.301Z,3.22
2022-12-20T12:08:55.516Z,3.33
2022-12-20T12:14:47.647Z,2.75
2022-12-20T12:17:24.889Z,2.73
2022-12-20T12:19:57.113Z,2.72
2022-12-20T12:22:33.115Z,3.00
2022-12-20T12:25:04.583Z,2.99
2022-12-20T12:27:31.333Z,2.94
2022-12-20T12:29:58.908Z,2.69
2022-12-20T12:32:36.889Z,2.58
2022-12-20T12:35:13.347Z,2.55
2022-12-20T12:37:55.652Z,2.71
2022-12-20T12:40:52.318Z,2.84
2022-12-20T12:43:29.241Z,2.66
2022-12-20T12:46:00.031Z,2.90
2022-12-20T12:49:01.755Z,3.21
2022-12-20T12:51:32.941Z,2.83
2022-12-20T12:54:16.632Z,2.72
2022-12-20T12:56:51.023Z,2.41
2022-12-20T12:59:20.279Z,1.93
2022-12-20T13:02:06.389Z,1.88
2022-12-20T13:04:55.642Z,2.17
2022-12-20T13:07:35.164Z,2.20
2022-12-20T13:10:24.890Z,2.40
2022-12-20T13:12:52.541Z,2.39
2022-12-20T13:15:22.105Z,2.17
2022-12-20T13:17:48.622Z,2.07
2022-12-20T13:20:39.498Z,1.68
2022-12-20T13:23:08.867Z,1.49
2022-12-20T13:25:36.984Z,1.47
2022-12-20T13:28:19.146Z,1.42
2022-12-20T13:30:47.276Z,1.19
2022-12-20T13:33:24.092Z,0.99
2022-12-20T13:35:59.891Z,0.92
2022-12-20T13:38:48.202Z,0.76
2022-12-20T13:41:35.547Z,0.63
2022-12-20T13:44:14.528Z,0.50
2022-12-20T13:46:57.146Z,0.41
2022-12-20T13:49:36.651Z,0.29
2022-12-20T13:52:12.286Z,0.32
2022-12-20T13:54:44.181Z,0.09
2022-12-20T13:57:17.243Z,-0.04
2022-12-20T13:59:59.985Z,-0.10
2022-12-20T14:02:36.392Z,-0.14
2022-12-20T14:05:13.240Z,-0.15
2022-12-20T14:07:40.216Z,-0.19
2022-12-20T14:10:27.606Z,-0.12
2022-12-20T14:12:55.351Z,-0.02
2022-12-20T14:15:25.049Z,0.08
2022-12-20T14:17:51.588Z,0.12
2022-12-20T14:20:38.442Z,0.06
2022-12-20T14:23:11.580Z,0.07
2022-12-20T14:25:43.494Z,-0.01
2022-12-20T14:28:26.453Z,-0.17
2022-12-20T14:30:53.766Z,-0.28
2022-12-20T14:33:38.064Z,-0.28
2022-12-20T14:36:16.801Z,-0.55
2022-12-20T14:38:45.768Z,-0.61
2022-12-20T14:41:38.405Z,-0.76
2022-12-20T14:44:07.770Z,-0.85
2022-12-20T14:46:35.983Z,-0.94
2022-12-20T14:49:30.281Z,-1.02
2022-12-20T14:52:12.128Z,-1.02
2022-12-20T14:55:09.126Z,-1.11
2022-12-20T14:57:36.697Z,-1.08
2022-12-20T15:00:18.344Z,-0.98
2022-12-20T15:02:52.925Z,-1.01
2022-12-20T15:05:38.674Z,-1.00
2022-12-20T15:08:10.927Z,-1.05
2022-12-20T15:10:37.793Z,-1.04
2022-12-20T15:13:05.089Z,-0.92
2022-12-20T15:15:31.691Z,-0.91
2022-12-20T15:17:58.212Z,-0.92
2022-12-20T15:20:24.738Z,-0.90
2022-12-20T15:22:51.271Z,-0.92
2022-12-20T15:25:18.048Z,-0.92
2022-12-20T15:27:44.696Z,-0.95
2022-12-20T15:30:14.418Z,-0.92
2022-12-20T15:32:54.662Z,-0.89
2022-12-20T15:35:22.497Z,-0.94
2022-12-20T15:37:49.061Z,-0.97
2022-12-20T15:40:15.624Z,-1.09
2022-12-20T15:42:43.330Z,-1.13
2022-12-20T15:45:14.493Z,-1.22
2022-12-20T15:47:41.026Z,-1.13
2022-12-20T15:50:08.522Z,-0.75
2022-12-20T15:52:35.088Z,-0.87
2022-12-20T15:55:01.661Z,-1.05
2022-12-20T15:57:28.883Z,-1.11
2022-12-20T16:00:01.831Z,-1.26
2022-12-20T16:02:31.007Z,-1.27
2022-12-20T16:04:58.837Z,-1.35
2022-12-20T16:07:25.571Z,-1.36
2022-12-20T16:09:52.198Z,-1.36
2022-12-20T16:12:26.926Z,-1.42
2022-12-20T16:14:53.592Z,-1.59
2022-12-20T16:17:20.157Z,-1.65
2022-12-20T16:19:46.761Z,-1.72
2022-12-20T16:22:23.885Z,-1.81
2022-12-20T16:24:51.726Z,-1.80
2022-12-20T16:27:18.421Z,-1.78
2022-12-20T16:29:45.530Z,-1.73
2022-12-20T16:32:17.540Z,-1.79
2022-12-20T16:34:45.311Z,-1.66
2022-12-20T16:37:12.047Z,-1.68
2022-12-20T16:39:38.649Z,-1.69
2022-12-20T16:42:13.029Z,-1.68
2022-12-20T16:44:42.729Z,-1.67
2022-12-20T16:47:09.913Z,-1.58
2022-12-20T16:49:36.861Z,-1.51
2022-12-20T16:52:04.444Z,-1.53
2022-12-20T16:54:31.970Z,-1.49
2022-12-20T16:56:58.526Z,-1.41
2022-12-20T16:59:25.851Z,-1.42
2022-12-20T17:01:55.619Z,-1.47
2022-12-20T17:04:23.034Z,-1.45
2022-12-20T17:06:49.709Z,-1.51
2022-12-20T17:09:17.615Z,-1.51
2022-12-20T17:11:45.127Z,-1.52
2022-12-20T17:14:14.387Z,-1.53
2022-12-20T17:16:41.557Z,-1.59
2022-12-20T17:19:10.809Z,-1.65
2022-12-20T17:24:26.468Z,-1.76
2022-12-20T17:26:53.030Z,-1.78
2022-12-20T17:29:20.489Z,-1.82
2022-12-20T17:31:48.112Z,-1.82
2022-12-20T17:34:20.778Z,-1.83
2022-12-20T17:36:48.766Z,-1.86
2022-12-20T17:39:15.732Z,-1.82
2022-12-20T17:41:43.298Z,-1.87
2022-12-20T17:44:20.620Z,-1.91
2022-12-20T17:46:47.643Z,-1.95
2022-12-20T17:49:15.390Z,-2.00
2022-12-20T17:51:42.733Z,-2.06
2022-12-20T17:54:18.476Z,-2.11
2022-12-20T17:56:45.370Z,-2.18
2022-12-20T17:59:13.750Z,-2.19
2022-12-20T18:01:41.692Z,-2.20
2022-12-20T18:04:11.403Z,-2.17
2022-12-20T18:06:39.910Z,-2.11
2022-12-20T18:09:21.402Z,-2.04
2022-12-20T18:11:48.434Z,-1.98
2022-12-20T18:14:15.915Z,-1.96
2022-12-20T18:16:42.870Z,-1.98
2022-12-20T18:19:15.459Z,-2.04
2022-12-20T18:21:41.966Z,-2.09
2022-12-20T18:24:11.981Z,-2.04
2022-12-20T18:26:38.483Z,-2.01
2022-12-20T18:29:05.018Z,-1.99
2022-12-20T18:31:34.285Z,-1.92
2022-12-20T18:34:01.970Z,-1.87
2022-12-20T18:36:34.693Z,-1.91
2022-12-20T18:39:05.319Z,-1.88
2022-12-20T18:41:32.454Z,-1.88
2022-12-20T18:44:01.074Z,-1.90
2022-12-20T18:46:28.368Z,-1.91
2022-12-20T18:48:57.201Z,-1.95
2022-12-20T18:51:27.164Z,-1.98
2022-12-20T18:53:55.752Z,-1.99
2022-12-20T18:56:28.765Z,-2.01
2022-12-20T18:58:56.964Z,-2.10
2022-12-20T19:01:26.152Z,-2.17
2022-12-20T19:03:53.912Z,-2.27
2022-12-20T19:06:21.588Z,-2.37
2022-12-20T19:08:48.864Z,-2.47
2022-12-20T19:11:18.608Z,-2.56
2022-12-20T19:13:45.497Z,-2.61
2022-12-20T19:16:13.189Z,-2.69
2022-12-20T19:18:41.110Z,-2.76
2022-12-20T19:21:10.729Z,-2.82
2022-12-20T19:23:39.033Z,-2.90
2022-12-20T19:26:08.657Z,-2.91
2022-12-20T19:28:36.223Z,-2.89
2022-12-20T19:31:14.231Z,-2.99
2022-12-20T19:33:46.396Z,-3.05
2022-12-20T19:36:18.247Z,-3.08
2022-12-20T19:38:47.335Z,-3.18
2022-12-20T19:41:14.588Z,-3.14
2022-12-20T19:43:41.918Z,-3.10
2022-12-20T19:46:09.681Z,-3.02
2022-12-20T19:48:37.072Z,-2.89
2022-12-20T19:51:06.566Z,-2.77
2022-12-20T19:53:33.108Z,-2.66
2022-12-20T19:55:59.662Z,-2.56
2022-12-20T19:58:26.167Z,-2.48
2022-12-20T20:00:52.973Z,-2.40
2022-12-20T20:03:20.574Z,-2.33
2022-12-20T20:05:47.663Z,-2.25
2022-12-20T20:08:15.305Z,-2.13
2022-12-20T20:10:44.903Z,-2.08
2022-12-20T20:13:11.869Z,-2.09
2022-12-20T20:15:38.481Z,-2.04
2022-12-20T20:18:05.226Z,-1.99
2022-12-20T20:20:32.911Z,-2.02
2022-12-20T20:22:59.447Z,-2.03
2022-12-20T20:25:26.379Z,-2.11
2022-12-20T20:27:52.910Z,-2.24
2022-12-20T20:30:19.526Z,-2.42
2022-12-20T20:32:46.193Z,-2.49
2022-12-20T20:35:12.732Z,-2.62
2022-12-20T20:37:39.883Z,-2.67
2022-12-20T20:40:07.243Z,-2.73
2022-12-20T20:42:33.747Z,-2.79
2022-12-20T20:45:00.253Z,-2.77
2022-12-20T20:47:26.773Z,-2.76
2022-12-20T20:49:53.275Z,-2.65
2022-12-20T20:52:20.027Z,-2.57
2022-12-20T20:54:46.657Z,-2.45
2022-12-20T20:57:13.372Z,-2.35
2022-12-20T20:59:40.116Z,-2.26
2022-12-20T21:02:07.131Z,-2.19
2022-12-20T21:04:33.754Z,-2.21
2022-12-20T21:07:00.427Z,-2.20
2022-12-20T21:09:26.974Z,-2.20
2022-12-20T21:11:53.636Z,-2.13
2022-12-20T21:14:36.446Z,-2.08
2022-12-20T21:17:06.820Z,-1.99
2022-12-20T21:19:33.317Z,-1.91
2022-12-20T21:22:01.040Z,-1.86
2022-12-20T21:24:27.614Z,-1.81
2022-12-20T21:26:55.273Z,-1.88
2022-12-20T21:29:22.618Z,-1.85
2022-12-20T21:31:49.221Z,-1.84
2022-12-20T21:34:15.737Z,-1.86
2022-12-20T21:36:42.679Z,-1.92
2022-12-20T21:39:12.475Z,-2.00
2022-12-20T21:41:39.717Z,-2.05
2022-12-20T21:44:06.217Z,-2.04
2022-12-20T21:46:33.007Z,-2.11
2022-12-20T21:48:59.906Z,-2.15
2022-12-20T21:51:27.651Z,-2.14
2022-12-20T21:53:56.525Z,-2.14
2022-12-20T21:56:25.161Z,-2.14
2022-12-20T21:58:52.037Z,-2.14
2022-12-20T22:01:21.061Z,-2.12
2022-12-20T22:03:52.224Z,-2.07
2022-12-20T22:06:19.106Z,-2.12
2022-12-20T22:08:45.905Z,-2.19
2022-12-20T22:11:18.352Z,-2.22
2022-12-20T22:13:46.302Z,-2.23
2022-12-20T22:16:17.988Z,-2.30
2022-12-20T22:18:49.850Z,-2.26
2022-12-20T22:21:17.856Z,-2.27
2022-12-20T22:23:44.743Z,-2.26
2022-12-20T22:26:16.740Z,-2.26
2022-12-20T22:28:49.840Z,-2.30
2022-12-20T22:31:17.671Z,-2.39
2022-12-20T22:33:44.898Z,-2.44
2022-12-20T22:36:13.507Z,-2.43
2022-12-20T22:38:40.824Z,-2.47
2022-12-20T22:41:10.371Z,-2.44
2022-12-20T22:43:38.648Z,-2.36
2022-12-20T22:46:05.683Z,-2.14
2022-12-20T22:48:32.303Z,-2.09
2022-12-20T22:51:04.521Z,-2.22
2022-12-20T22:53:34.870Z,-2.24
2022-12-20T22:56:02.350Z,-2.18
2022-12-20T22:58:30.382Z,-2.22
2022-12-20T23:01:02.649Z,-2.22
2022-12-20T23:03:30.315Z,-2.17
2022-12-20T23:05:59.425Z,-2.12
2022-12-20T23:08:27.883Z,-2.13
2022-12-20T23:11:13.010Z,-2.07
2022-12-20T23:13:58.833Z,-2.01
2022-12-20T23:16:25.939Z,-1.91
2022-12-20T23:18:56.779Z,-1.85
2022-12-20T23:21:42.343Z,-1.76
2022-12-20T23:24:10.243Z,-1.77
2022-12-20T23:26:38.420Z,-1.73
2022-12-20T23:29:07.004Z,-1.74
2022-12-20T23:31:33.909Z,-1.67
2022-12-20T23:34:01.768Z,-1.65
2022-12-20T23:36:29.152Z,-1.64
2022-12-20T23:38:56.783Z,-1.70
2022-12-20T23:41:23.759Z,-1.68
2022-12-20T23:43:50.432Z,-1.71
2022-12-20T23:46:18.937Z,-1.80
2022-12-20T23:48:45.560Z,-1.87
2022-12-20T23:51:12.482Z,-1.88
2022-12-20T23:53:39.348Z,-1.89
2022-12-20T23:56:18.188Z,-1.85
2022-12-20T23:58:46.228Z,-1.92
